createdAt,value
2022-10-28T00:01:20.753Z,2.78
2022-10-28T00:03:50.205Z,2.90
2022-10-28T00:06:20.024Z,3.37
2022-10-28T00:08:48.786Z,2.80
2022-10-28T00:11:18.975Z,2.57
2022-10-28T00:13:47.463Z,2.60
2022-10-28T00:16:19.372Z,2.70
2022-10-28T00:18:48.436Z,2.40
2022-10-28T00:21:18.957Z,3.17
2022-10-28T00:23:46.903Z,3.13
2022-10-28T00:26:16.823Z,2.77
2022-10-28T00:28:46.945Z,3.03
2022-10-28T00:31:16.740Z,3.20
2022-10-28T00:33:46.923Z,2.97
2022-10-28T00:36:17.265Z,3.23
2022-10-28T00:38:46.979Z,3.43
2022-10-28T00:41:17.750Z,3.30
2022-10-28T00:43:49.363Z,3.60
2022-10-28T00:46:27.035Z,3.07
2022-10-28T00:49:01.318Z,3.27
2022-10-28T00:51:32.925Z,3.97
2022-10-28T00:54:01.063Z,3.50
2022-10-28T00:56:35.440Z,3.43
2022-10-28T00:59:08.555Z,3.73
2022-10-28T01:01:51.603Z,3.30
2022-10-28T01:04:22.239Z,3.23
2022-10-28T01:06:50.948Z,3.47
2022-10-28T01:09:18.912Z,4.07
2022-10-28T01:11:56.081Z,2.90
2022-10-28T01:14:40.836Z,3.63
2022-10-28T01:17:19.351Z,3.00
2022-10-28T01:20:22.414Z,2.97
2022-10-28T01:22:59.772Z,3.37
2022-10-28T01:25:59.158Z,3.07
2022-10-28T01:28:55.804Z,3.10
2022-10-28T01:31:36.303Z,3.53
2022-10-28T01:34:12.179Z,3.43
2022-10-28T01:36:49.836Z,3.10
2022-10-28T01:39:30.033Z,3.20
2022-10-28T01:42:03.527Z,3.10
2022-10-28T01:44:40.687Z,3.60
2022-10-28T01:47:13.396Z,3.40
2022-10-28T01:49:48.192Z,3.43
2022-10-28T01:52:22.318Z,3.50
2022-10-28T01:54:55.677Z,3.17
2022-10-28T01:57:25.909Z,2.83
2022-10-28T01:59:54.687Z,3.37
2022-10-28T02:02:24.169Z,2.90
2022-10-28T02:04:52.039Z,2.97
2022-10-28T02:07:19.954Z,3.70
2022-10-28T02:10:02.935Z,3.20
2022-10-28T02:12:34.968Z,3.10
2022-10-28T02:15:19.630Z,3.23
2022-10-28T02:18:03.334Z,3.47
2022-10-28T02:20:40.506Z,3.80
2022-10-28T02:23:20.143Z,2.87
2022-10-28T02:25:54.052Z,3.10
2022-10-28T02:28:28.438Z,3.30
2022-10-28T02:31:02.824Z,3.27
2022-10-28T02:33:35.927Z,3.50
2022-10-28T02:36:07.705Z,3.10
2022-10-28T02:38:39.987Z,3.23
2022-10-28T02:41:13.663Z,3.20
2022-10-28T02:43:44.994Z,3.07
2022-10-28T02:46:14.579Z,3.13
2022-10-28T02:48:47.645Z,3.37
2022-10-28T02:51:19.495Z,3.13
2022-10-28T02:53:57.765Z,3.17
2022-10-28T02:56:25.766Z,3.30
2022-10-28T02:58:54.157Z,3.30
2022-10-28T03:01:22.246Z,3.23
2022-10-28T03:03:51.641Z,3.83
2022-10-28T03:06:19.654Z,3.50
2022-10-28T03:08:47.652Z,3.37
2022-10-28T03:11:15.516Z,3.73
2022-10-28T03:13:43.376Z,3.50
2022-10-28T03:16:11.258Z,3.20
2022-10-28T03:18:39.131Z,3.57
2022-10-28T03:21:08.646Z,3.50
2022-10-28T03:23:36.568Z,3.60
2022-10-28T03:26:04.439Z,3.90
2022-10-28T03:28:32.302Z,3.00
2022-10-28T03:31:00.144Z,3.63
2022-10-28T03:33:28.118Z,3.27
2022-10-28T03:35:56.013Z,3.43
2022-10-28T03:38:25.289Z,3.37
2022-10-28T03:40:53.172Z,3.00
2022-10-28T03:43:21.030Z,3.67
2022-10-28T03:45:49.121Z,3.57
2022-10-28T03:48:17.070Z,3.70
2022-10-28T03:50:44.949Z,4.77
2022-10-28T03:53:12.791Z,3.97
2022-10-28T03:55:42.094Z,4.20
2022-10-28T03:58:09.980Z,3.97
2022-10-28T04:00:37.844Z,3.80
2022-10-28T04:03:05.915Z,3.67
2022-10-28T04:05:33.782Z,4.00
2022-10-28T04:08:01.634Z,3.87
2022-10-28T04:10:29.511Z,3.80
2022-10-28T04:13:02.541Z,3.60
2022-10-28T04:15:30.545Z,3.57
2022-10-28T04:17:58.943Z,3.93
2022-10-28T04:20:27.900Z,3.50
2022-10-28T04:22:57.233Z,6.97
2022-10-28T04:25:27.016Z,3.53
2022-10-28T04:27:55.663Z,4.00
2022-10-28T04:30:25.596Z,6.57
2022-10-28T04:32:53.446Z,4.23
2022-10-28T04:35:21.429Z,5.73
2022-10-28T04:37:49.339Z,4.07
2022-10-28T04:40:17.893Z,4.00
2022-10-28T04:42:47.102Z,3.87
2022-10-28T04:45:15.739Z,4.13
2022-10-28T04:47:45.027Z,4.23
2022-10-28T04:50:12.911Z,4.03
2022-10-28T04:52:40.865Z,3.87
2022-10-28T04:55:11.417Z,7.67
2022-10-28T04:57:39.362Z,3.93
2022-10-28T05:00:08.447Z,3.90
2022-10-28T05:02:36.477Z,4.13
2022-10-28T05:05:06.602Z,5.30
2022-10-28T05:07:35.684Z,3.93
2022-10-28T05:10:03.669Z,3.53
2022-10-28T05:12:31.654Z,7.80
2022-10-28T05:14:59.634Z,6.77
2022-10-28T05:17:27.608Z,4.57
2022-10-28T05:19:56.241Z,9.73
2022-10-28T05:22:25.595Z,5.60
2022-10-28T05:24:53.578Z,5.30
2022-10-28T05:27:21.767Z,4.37
2022-10-28T05:29:49.787Z,4.07
2022-10-28T05:32:18.158Z,3.80
2022-10-28T05:34:46.356Z,4.33
2022-10-28T05:37:14.385Z,4.27
2022-10-28T05:39:43.883Z,3.27
2022-10-28T05:42:12.143Z,4.33
2022-10-28T05:44:40.427Z,3.73
2022-10-28T05:47:08.360Z,4.47
2022-10-28T05:49:36.965Z,3.90
2022-10-28T05:52:05.566Z,4.20
2022-10-28T05:54:33.616Z,4.40
2022-10-28T05:57:02.983Z,4.60
2022-10-28T05:59:31.027Z,3.77
2022-10-28T06:01:58.964Z,4.50
2022-10-28T06:04:27.479Z,4.57
2022-10-28T06:06:56.716Z,4.37
2022-10-28T06:09:26.145Z,5.10
2022-10-28T06:11:52.544Z,4.70
2022-10-28T06:14:21.974Z,4.80
2022-10-28T06:16:50.115Z,4.93
2022-10-28T06:19:18.314Z,5.27
2022-10-28T06:21:46.226Z,5.00
2022-10-28T06:24:14.197Z,5.37
2022-10-28T06:26:43.384Z,5.40
2022-10-28T06:29:11.916Z,5.37
2022-10-28T06:31:42.181Z,6.40
2022-10-28T06:34:10.559Z,6.00
2022-10-28T06:36:38.561Z,6.10
2022-10-28T06:39:06.843Z,5.60
2022-10-28T06:41:35.100Z,5.83
2022-10-28T06:44:03.170Z,6.60
2022-10-28T06:46:33.117Z,5.40
2022-10-28T06:49:03.274Z,4.83
2022-10-28T06:51:32.435Z,4.50
2022-10-28T06:54:00.479Z,5.37
2022-10-28T06:56:28.441Z,5.50
2022-10-28T06:58:59.067Z,4.73
2022-10-28T07:01:27.397Z,4.50
2022-10-28T07:03:55.484Z,4.40
2022-10-28T07:06:26.913Z,4.30
2022-10-28T07:08:54.830Z,5.33
2022-10-28T07:11:22.767Z,4.43
2022-10-28T07:13:50.736Z,4.07
2022-10-28T07:16:18.925Z,4.80
2022-10-28T07:18:46.985Z,4.43
2022-10-28T07:21:15.058Z,4.60
2022-10-28T07:23:44.380Z,4.57
2022-10-28T07:26:12.301Z,4.53
2022-10-28T07:28:40.358Z,5.00
2022-10-28T07:31:08.430Z,4.90
2022-10-28T07:33:37.871Z,4.50
2022-10-28T07:36:06.576Z,4.13
2022-10-28T07:38:35.889Z,4.50
2022-10-28T07:41:08.131Z,4.80
2022-10-28T07:43:38.189Z,4.73
2022-10-28T07:46:07.245Z,5.05
2022-10-28T07:48:35.658Z,5.20
2022-10-28T07:51:05.615Z,5.20
2022-10-28T07:53:34.105Z,5.67
2022-10-28T07:56:04.170Z,4.65
2022-10-28T07:58:33.641Z,4.63
2022-10-28T08:01:05.792Z,5.20
2022-10-28T08:03:38.639Z,4.68
2022-10-28T08:06:10.011Z,5.35
2022-10-28T08:08:38.499Z,5.03
2022-10-28T08:11:12.670Z,5.45
2022-10-28T08:13:42.125Z,5.68
2022-10-28T08:16:10.350Z,4.95
2022-10-28T08:18:38.848Z,5.03
2022-10-28T08:21:08.423Z,5.43
2022-10-28T08:23:38.347Z,6.00
2022-10-28T08:26:06.951Z,5.10
2022-10-28T08:28:35.110Z,4.90
2022-10-28T08:31:09.380Z,6.20
2022-10-28T08:33:38.419Z,5.13
2022-10-28T08:36:07.370Z,6.15
2022-10-28T08:38:35.331Z,5.82
2022-10-28T08:41:14.029Z,5.53
2022-10-28T08:44:01.671Z,4.93
2022-10-28T08:46:52.277Z,5.13
2022-10-28T08:49:23.434Z,4.57
2022-10-28T08:51:56.254Z,4.68
2022-10-28T08:54:32.479Z,4.72
2022-10-28T08:57:02.572Z,4.53
2022-10-28T08:59:33.626Z,4.95
2022-10-28T09:02:15.412Z,4.43
2022-10-28T09:04:45.648Z,4.40
2022-10-28T09:07:19.139Z,3.53
2022-10-28T09:09:47.866Z,3.88
2022-10-28T09:12:28.854Z,4.47
2022-10-28T09:15:13.171Z,4.05
2022-10-28T09:17:53.335Z,4.00
2022-10-28T09:20:30.562Z,4.60
2022-10-28T09:23:00.982Z,4.50
2022-10-28T09:25:38.986Z,6.90
2022-10-28T09:28:20.482Z,6.68
2022-10-28T09:30:58.072Z,4.10
2022-10-28T09:33:44.194Z,3.88
2022-10-28T09:36:16.182Z,4.00
2022-10-28T09:38:45.568Z,3.90
2022-10-28T09:41:18.451Z,3.80
2022-10-28T09:43:49.888Z,3.80
2022-10-28T09:46:19.421Z,3.22
2022-10-28T09:48:50.579Z,3.45
2022-10-28T09:51:29.715Z,3.28
2022-10-28T09:54:00.435Z,2.95
2022-10-28T09:56:30.541Z,2.58
2022-10-28T09:59:01.285Z,2.33
2022-10-28T10:01:33.367Z,3.03
2022-10-28T10:04:03.696Z,3.05
2022-10-28T10:06:37.722Z,3.30
2022-10-28T10:09:06.199Z,2.63
2022-10-28T10:11:38.516Z,2.63
2022-10-28T10:14:10.677Z,2.65
2022-10-28T10:16:43.816Z,2.97
2022-10-28T10:19:13.152Z,1.88
2022-10-28T10:21:43.619Z,2.50
2022-10-28T10:24:31.475Z,4.60
2022-10-28T10:27:02.460Z,2.17
2022-10-28T10:29:32.376Z,2.00
2022-10-28T10:32:26.359Z,2.40
2022-10-28T10:35:03.129Z,2.20
2022-10-28T10:37:35.567Z,1.67
2022-10-28T10:40:08.677Z,1.58
2022-10-28T10:42:42.692Z,1.65
2022-10-28T10:45:26.246Z,1.80
2022-10-28T10:48:13.417Z,3.40
2022-10-28T10:50:48.647Z,1.85
2022-10-28T10:53:25.443Z,1.73
2022-10-28T10:55:57.491Z,1.73
2022-10-28T10:58:28.501Z,1.88
2022-10-28T11:00:58.949Z,1.67
2022-10-28T11:03:32.639Z,2.00
2022-10-28T11:06:23.576Z,1.80
2022-10-28T11:08:57.634Z,1.55
2022-10-28T11:11:34.319Z,1.50
2022-10-28T11:14:09.510Z,1.60
2022-10-28T11:16:49.987Z,1.75
2022-10-28T11:19:22.896Z,1.33
2022-10-28T11:22:06.519Z,1.40
2022-10-28T11:25:07.083Z,1.17
2022-10-28T11:27:51.670Z,1.73
2022-10-28T11:30:30.746Z,1.20
2022-10-28T11:33:28.986Z,1.40
2022-10-28T11:36:04.326Z,1.33
2022-10-28T11:38:52.505Z,1.35
2022-10-28T11:41:31.847Z,1.50
2022-10-28T11:44:04.979Z,1.10
2022-10-28T11:46:50.927Z,1.25
2022-10-28T11:50:02.676Z,1.30
2022-10-28T11:52:49.118Z,1.20
2022-10-28T11:55:29.689Z,1.30
2022-10-28T11:58:10.927Z,1.25
2022-10-28T12:00:48.114Z,1.52
2022-10-28T12:03:43.809Z,1.50
2022-10-28T12:06:19.381Z,1.67
2022-10-28T12:12:09.904Z,1.52
2022-10-28T12:14:47.141Z,1.25
2022-10-28T12:17:21.241Z,1.40
2022-10-28T12:19:56.824Z,1.70
2022-10-28T12:22:30.558Z,2.42
2022-10-28T12:25:03.298Z,1.88
2022-10-28T12:27:37.091Z,1.90
2022-10-28T12:30:16.929Z,1.50
2022-10-28T12:32:46.191Z,1.65
2022-10-28T12:35:21.065Z,1.42
2022-10-28T12:37:53.761Z,1.65
2022-10-28T12:40:25.859Z,2.08
2022-10-28T12:43:00.427Z,1.60
2022-10-28T12:45:37.495Z,1.75
2022-10-28T12:48:16.527Z,1.98
2022-10-28T12:50:50.854Z,2.13
2022-10-28T12:53:29.163Z,1.27
2022-10-28T12:56:00.569Z,1.58
2022-10-28T12:58:35.422Z,2.22
2022-10-28T13:01:08.881Z,1.60
2022-10-28T13:03:37.757Z,1.50
2022-10-28T13:06:29.476Z,1.58
2022-10-28T13:09:26.215Z,1.60
2022-10-28T13:12:33.291Z,3.75
2022-10-28T13:15:28.612Z,1.83
2022-10-28T13:18:13.597Z,1.63
2022-10-28T13:20:48.823Z,1.52
2022-10-28T13:23:31.370Z,1.60
2022-10-28T13:26:15.281Z,1.70
2022-10-28T13:28:46.789Z,1.73
2022-10-28T13:31:16.760Z,1.48
2022-10-28T13:33:52.910Z,1.70
2022-10-28T13:36:26.256Z,1.60
2022-10-28T13:39:01.876Z,2.28
2022-10-28T13:41:43.527Z,11.60
2022-10-28T13:44:47.167Z,2.80
2022-10-28T13:47:32.911Z,1.58
2022-10-28T13:50:34.698Z,1.40
2022-10-28T13:53:44.766Z,1.42
2022-10-28T13:56:26.638Z,1.58
2022-10-28T13:58:57.263Z,1.30
2022-10-28T14:01:40.458Z,1.60
2022-10-28T14:04:24.594Z,1.40
2022-10-28T14:07:05.444Z,1.80
2022-10-28T14:09:36.508Z,1.83
2022-10-28T14:12:13.004Z,1.58
2022-10-28T14:14:57.586Z,1.65
2022-10-28T14:17:29.229Z,1.55
2022-10-28T14:20:00.521Z,1.80
2022-10-28T14:22:33.591Z,1.40
2022-10-28T14:25:05.954Z,1.70
2022-10-28T14:27:44.296Z,2.63
2022-10-28T14:30:31.978Z,1.73
2022-10-28T14:33:28.888Z,2.08
2022-10-28T14:36:15.850Z,1.58
2022-10-28T14:39:13.124Z,2.10
2022-10-28T14:42:02.748Z,1.90
2022-10-28T14:45:08.526Z,1.85
2022-10-28T14:47:58.820Z,1.90
2022-10-28T14:50:35.642Z,1.65
2022-10-28T14:53:18.777Z,2.13
2022-10-28T14:55:51.266Z,1.75
2022-10-28T14:58:23.986Z,1.73
2022-10-28T15:01:06.005Z,1.80
2022-10-28T15:03:34.344Z,1.88
2022-10-28T15:06:04.834Z,2.33
2022-10-28T15:08:36.189Z,2.20
2022-10-28T15:11:04.256Z,2.30
2022-10-28T15:13:32.242Z,3.00
2022-10-28T15:16:03.777Z,2.45
2022-10-28T15:18:33.018Z,2.63
2022-10-28T15:21:11.775Z,2.85
2022-10-28T15:23:47.591Z,3.42
2022-10-28T15:26:17.800Z,2.60
2022-10-28T15:28:46.058Z,2.63
2022-10-28T15:31:17.345Z,2.15
2022-10-28T15:33:45.793Z,2.70
2022-10-28T15:36:18.481Z,2.28
2022-10-28T15:38:49.736Z,2.50
2022-10-28T15:41:43.645Z,2.55
2022-10-28T15:44:27.455Z,2.70
2022-10-28T15:46:58.657Z,2.47
2022-10-28T15:49:35.904Z,2.45
2022-10-28T15:52:22.916Z,2.78
2022-10-28T15:55:00.861Z,2.63
2022-10-28T15:57:47.604Z,3.00
2022-10-28T16:00:28.933Z,3.10
2022-10-28T16:03:01.479Z,2.88
2022-10-28T16:05:47.534Z,2.70
2022-10-28T16:08:21.827Z,10.07
2022-10-28T16:10:54.942Z,5.68
2022-10-28T16:13:27.516Z,2.75
2022-10-28T16:16:02.574Z,2.13
2022-10-28T16:18:34.532Z,2.58
2022-10-28T16:21:05.758Z,2.50
2022-10-28T16:23:41.295Z,2.40
2022-10-28T16:26:13.448Z,2.35
2022-10-28T16:28:44.988Z,3.90
2022-10-28T16:31:18.195Z,3.65
2022-10-28T16:33:47.925Z,3.33
2022-10-28T16:36:16.365Z,3.60
2022-10-28T16:38:44.902Z,2.95
2022-10-28T16:41:17.644Z,4.13
2022-10-28T16:43:46.734Z,2.83
2022-10-28T16:46:21.228Z,3.05
2022-10-28T16:48:49.385Z,3.13
2022-10-28T16:51:19.100Z,2.83
2022-10-28T16:53:51.173Z,2.92
2022-10-28T16:56:22.841Z,3.03
2022-10-28T16:58:50.969Z,3.53
2022-10-28T17:01:23.947Z,3.67
2022-10-28T17:03:52.314Z,3.95
2022-10-28T17:06:21.009Z,2.90
2022-10-28T17:09:02.259Z,3.40
2022-10-28T17:11:33.231Z,2.55
2022-10-28T17:14:01.379Z,3.10
2022-10-28T17:16:29.581Z,2.78
2022-10-28T17:18:57.877Z,2.40
2022-10-28T17:21:25.962Z,2.55
2022-10-28T17:23:54.021Z,2.65
2022-10-28T17:26:22.003Z,2.90
2022-10-28T17:28:53.789Z,2.10
2022-10-28T17:31:24.957Z,2.47
2022-10-28T17:33:57.150Z,2.63
2022-10-28T17:36:25.327Z,2.70
2022-10-28T17:38:54.174Z,2.53
2022-10-28T17:41:22.345Z,2.35
2022-10-28T17:43:55.525Z,9.25
2022-10-28T17:46:23.817Z,2.22
2022-10-28T17:48:52.088Z,2.50
2022-10-28T17:51:22.220Z,2.63
2022-10-28T17:53:54.691Z,2.60
2022-10-28T17:56:22.786Z,2.78
2022-10-28T17:58:55.091Z,2.63
2022-10-28T18:01:23.645Z,2.60
2022-10-28T18:03:52.054Z,3.63
2022-10-28T18:06:20.306Z,3.70
2022-10-28T18:11:19.634Z,7.78
2022-10-28T18:13:50.439Z,4.53
2022-10-28T18:16:21.527Z,3.70
2022-10-28T18:18:49.499Z,4.38
2022-10-28T18:21:17.747Z,4.15
2022-10-28T18:23:46.375Z,3.65
2022-10-28T18:26:16.252Z,2.35
2022-10-28T18:28:45.859Z,3.10
2022-10-28T18:31:16.686Z,3.53
2022-10-28T18:33:49.370Z,3.55
2022-10-28T18:36:19.619Z,3.58
2022-10-28T18:38:48.890Z,4.68
2022-10-28T18:41:18.503Z,3.20
2022-10-28T18:43:47.857Z,4.22
2022-10-28T18:46:16.079Z,6.60
2022-10-28T18:48:45.447Z,4.70
2022-10-28T18:51:15.398Z,2.85
2022-10-28T18:53:45.497Z,2.90
2022-10-28T18:56:14.983Z,4.13
2022-10-28T18:58:43.724Z,3.00
2022-10-28T19:01:16.124Z,2.90
2022-10-28T19:03:48.280Z,2.92
2022-10-28T19:06:17.788Z,2.90
2022-10-28T19:08:45.914Z,3.22
2022-10-28T19:11:39.356Z,3.40
2022-10-28T19:14:08.489Z,2.95
2022-10-28T19:16:36.891Z,3.53
2022-10-28T19:19:07.263Z,3.13
2022-10-28T19:21:39.492Z,3.13
2022-10-28T19:24:08.384Z,3.25
2022-10-28T19:26:37.034Z,3.30
2022-10-28T19:29:06.157Z,3.13
2022-10-28T19:31:39.108Z,3.20
2022-10-28T19:34:10.976Z,3.75
2022-10-28T19:36:39.422Z,2.90
2022-10-28T19:39:07.666Z,3.17
2022-10-28T19:41:35.771Z,3.58
2022-10-28T19:44:04.782Z,3.15
2022-10-28T19:46:34.787Z,3.60
2022-10-28T19:49:06.652Z,3.40
2022-10-28T19:51:38.023Z,3.10
2022-10-28T19:54:08.812Z,3.40
2022-10-28T19:56:37.367Z,3.22
2022-10-28T19:59:06.662Z,3.75
2022-10-28T20:01:36.561Z,3.95
2022-10-28T20:04:06.312Z,4.00
2022-10-28T20:06:38.123Z,4.25
2022-10-28T20:09:06.872Z,4.28
2022-10-28T20:11:37.464Z,4.57
2022-10-28T20:14:08.435Z,4.90
2022-10-28T20:16:37.465Z,4.80
2022-10-28T20:19:05.711Z,4.60
2022-10-28T20:21:37.334Z,5.47
2022-10-28T20:24:06.932Z,4.03
2022-10-28T20:26:37.582Z,5.07
2022-10-28T20:29:06.869Z,4.13
2022-10-28T20:31:35.571Z,5.07
2022-10-28T20:34:05.749Z,4.07
2022-10-28T20:36:37.913Z,4.35
2022-10-28T20:39:09.168Z,4.75
2022-10-28T20:41:39.475Z,4.78
2022-10-28T20:44:08.197Z,5.00
2022-10-28T20:46:36.818Z,4.20
2022-10-28T20:49:06.271Z,4.45
2022-10-28T20:51:34.845Z,4.70
2022-10-28T20:54:04.637Z,4.20
2022-10-28T20:56:35.540Z,4.97
2022-10-28T20:59:03.758Z,4.35
2022-10-28T21:01:33.841Z,3.90
2022-10-28T21:04:03.412Z,3.87
2022-10-28T21:06:32.319Z,4.68
2022-10-28T21:09:00.659Z,3.87
2022-10-28T21:11:30.189Z,4.00
2022-10-28T21:13:59.671Z,4.95
2022-10-28T21:16:28.796Z,4.83
2022-10-28T21:18:57.039Z,4.30
2022-10-28T21:21:26.243Z,4.47
2022-10-28T21:23:54.423Z,4.10
2022-10-28T21:26:23.033Z,4.10
2022-10-28T21:28:53.102Z,3.93
2022-10-28T21:31:22.316Z,4.40
2022-10-28T21:36:20.666Z,4.43
2022-10-28T21:38:49.627Z,4.03
2022-10-28T21:41:19.514Z,4.03
2022-10-28T21:43:49.210Z,4.33
2022-10-28T21:46:19.641Z,4.40
2022-10-28T21:48:48.069Z,4.00
2022-10-28T21:51:17.489Z,4.30
2022-10-28T21:53:46.569Z,3.73
2022-10-28T21:56:18.498Z,4.40
2022-10-28T21:58:48.159Z,4.73
2022-10-28T22:01:18.950Z,4.50
2022-10-28T22:03:47.157Z,4.50
2022-10-28T22:06:15.807Z,4.33
2022-10-28T22:08:43.680Z,4.93
2022-10-28T22:11:15.208Z,4.50
2022-10-28T22:13:43.230Z,4.33
2022-10-28T22:16:13.346Z,4.23
2022-10-28T22:18:42.713Z,4.83
2022-10-28T22:21:13.379Z,4.40
2022-10-28T22:23:41.496Z,4.13
2022-10-28T22:26:11.495Z,4.47
2022-10-28T22:28:39.839Z,4.43
2022-10-28T22:31:09.733Z,4.33
2022-10-28T22:33:38.139Z,4.67
2022-10-28T22:36:09.706Z,5.13
2022-10-28T22:38:37.933Z,4.50
2022-10-28T22:41:07.726Z,5.00
2022-10-28T22:43:36.253Z,4.93
2022-10-28T22:46:04.752Z,4.43
2022-10-28T22:48:33.446Z,4.57
2022-10-28T22:51:02.008Z,4.47
2022-10-28T22:53:31.374Z,4.00
2022-10-28T22:55:59.515Z,4.33
2022-10-28T22:58:28.123Z,4.00
2022-10-28T23:01:05.990Z,3.60
2022-10-28T23:03:36.777Z,3.90
2022-10-28T23:06:04.856Z,4.43
2022-10-28T23:08:34.471Z,4.37
2022-10-28T23:11:02.958Z,4.30
2022-10-28T23:13:30.863Z,4.27
2022-10-28T23:16:03.078Z,4.47
2022-10-28T23:18:30.914Z,4.30
2022-10-28T23:21:03.941Z,3.80
2022-10-28T23:23:33.298Z,4.47
2022-10-28T23:26:01.164Z,3.80
2022-10-28T23:28:29.188Z,3.53
2022-10-28T23:31:01.107Z,3.77
2022-10-28T23:33:30.943Z,3.63
2022-10-28T23:35:59.717Z,3.60
2022-10-28T23:38:27.745Z,3.33
2022-10-28T23:40:58.447Z,3.97
2022-10-28T23:43:27.080Z,4.70
2022-10-28T23:45:54.992Z,4.63
2022-10-28T23:48:23.171Z,4.37
2022-10-28T23:50:51.279Z,4.50
2022-10-28T23:53:19.560Z,4.27
2022-10-28T23:55:49.539Z,3.93
2022-10-28T23:58:20.808Z,4.27
